createdAt,value
2023-03-11T00:00:49.121Z,14.82
2023-03-11T00:05:49.289Z,14.45
2023-03-11T00:08:28.140Z,17.15
2023-03-11T00:11:02.655Z,18.02
2023-03-11T00:13:32.471Z,14.77
2023-03-11T00:16:03.061Z,14.05
2023-03-11T00:18:37.610Z,16.15
2023-03-11T00:21:07.534Z,13.50
2023-03-11T00:23:38.594Z,12.98
2023-03-11T00:26:07.738Z,14.38
2023-03-11T00:28:36.925Z,13.90
2023-03-11T00:31:06.811Z,14.18
2023-03-11T00:33:35.969Z,18.40
2023-03-11T00:36:06.571Z,15.18
2023-03-11T00:38:35.812Z,17.00
2023-03-11T00:41:06.925Z,16.58
2023-03-11T00:46:16.681Z,23.40
2023-03-11T00:48:45.750Z,17.92
2023-03-11T00:51:17.147Z,18.45
2023-03-11T00:53:46.829Z,22.55
2023-03-11T00:56:18.259Z,19.77
2023-03-11T00:58:47.521Z,19.98
2023-03-11T01:03:56.501Z,20.25
2023-03-11T01:06:30.127Z,18.90
2023-03-11T01:11:48.400Z,16.27
2023-03-11T01:14:17.655Z,16.92
2023-03-11T01:16:46.979Z,17.38
2023-03-11T01:19:18.318Z,14.35
2023-03-11T01:21:47.464Z,14.73
2023-03-11T01:24:16.650Z,15.05
2023-03-11T01:29:27.641Z,15.23
2023-03-11T01:31:56.712Z,18.65
2023-03-11T01:34:31.297Z,16.13
2023-03-11T01:37:01.186Z,15.15
2023-03-11T01:39:30.414Z,20.10
2023-03-11T01:42:07.235Z,21.83
2023-03-11T01:44:41.449Z,20.50
2023-03-11T01:47:41.820Z,17.67
2023-03-11T01:50:15.242Z,18.45
2023-03-11T01:52:46.396Z,18.70
2023-03-11T01:55:19.096Z,18.95
2023-03-11T01:57:51.836Z,18.98
2023-03-11T02:00:21.770Z,19.00
2023-03-11T02:02:54.068Z,21.75
2023-03-11T02:05:25.643Z,18.52
2023-03-11T02:08:00.442Z,18.33
2023-03-11T02:10:34.970Z,17.70
2023-03-11T02:13:07.079Z,14.85
2023-03-11T02:15:38.349Z,15.73
2023-03-11T02:18:18.159Z,19.55
2023-03-11T02:20:54.741Z,16.02
2023-03-11T02:23:29.086Z,20.58
2023-03-11T02:26:06.337Z,18.10
2023-03-11T02:28:44.032Z,14.20
2023-03-11T02:31:14.815Z,23.58
2023-03-11T02:36:36.411Z,20.13
2023-03-11T02:39:07.536Z,20.80
2023-03-11T02:41:40.321Z,21.80
2023-03-11T02:49:14.511Z,21.67
2023-03-11T02:51:43.676Z,26.23
2023-03-11T02:54:12.883Z,25.75
2023-03-11T02:56:48.211Z,27.95
2023-03-11T02:59:19.397Z,27.30
2023-03-11T03:01:54.754Z,25.25
2023-03-11T03:04:29.747Z,23.40
2023-03-11T03:07:04.333Z,23.13
2023-03-11T03:09:34.088Z,26.05
2023-03-11T03:12:03.723Z,24.00
2023-03-11T03:14:36.814Z,25.17
2023-03-11T03:17:06.373Z,20.15
2023-03-11T03:19:35.821Z,19.67
2023-03-11T03:22:05.431Z,22.48
2023-03-11T03:24:35.540Z,17.63
2023-03-11T03:27:04.997Z,21.58
2023-03-11T03:29:36.163Z,18.10
2023-03-11T03:32:10.410Z,22.25
2023-03-11T03:34:39.691Z,15.57
2023-03-11T03:37:09.093Z,17.75
2023-03-11T03:39:38.728Z,18.25
2023-03-11T03:42:09.382Z,15.82
2023-03-11T03:44:44.105Z,17.77
2023-03-11T03:47:18.773Z,19.23
2023-03-11T03:49:48.361Z,20.77
2023-03-11T03:52:17.583Z,23.15
2023-03-11T03:54:51.975Z,23.73
2023-03-11T03:57:21.122Z,23.42
2023-03-11T03:59:52.975Z,22.98
2023-03-11T04:02:22.390Z,14.55
2023-03-11T04:04:52.821Z,21.70
2023-03-11T04:07:27.513Z,20.27
2023-03-11T04:09:56.858Z,19.15
2023-03-11T04:12:26.134Z,20.83
2023-03-11T04:14:57.455Z,20.63
2023-03-11T04:19:57.798Z,24.38
2023-03-11T04:22:27.484Z,23.45
2023-03-11T04:24:56.631Z,22.90
2023-03-11T04:27:33.916Z,28.77
2023-03-11T04:32:48.734Z,23.20
2023-03-11T04:35:23.117Z,21.38
2023-03-11T04:37:58.467Z,23.20
2023-03-11T04:40:28.964Z,25.70
2023-03-11T04:42:58.357Z,21.23
2023-03-11T04:45:36.382Z,19.17
2023-03-11T04:48:06.644Z,23.90
2023-03-11T04:50:36.554Z,22.25
2023-03-11T04:53:11.138Z,19.17
2023-03-11T04:55:41.142Z,24.17
2023-03-11T04:58:10.727Z,23.38
2023-03-11T05:00:43.637Z,24.05
2023-03-11T05:03:20.268Z,29.00
2023-03-11T05:08:24.648Z,30.33
2023-03-11T05:10:54.691Z,31.48
2023-03-11T05:13:30.126Z,27.30
2023-03-11T05:16:01.700Z,27.38
2023-03-11T05:18:32.113Z,27.23
2023-03-11T05:21:01.335Z,28.45
2023-03-11T05:23:33.723Z,27.77
2023-03-11T05:26:03.754Z,26.00
2023-03-11T05:28:34.666Z,24.27
2023-03-11T05:31:10.487Z,27.15
2023-03-11T05:33:41.343Z,47.72
2023-03-11T05:36:14.023Z,22.75
2023-03-11T05:38:46.233Z,21.95
2023-03-11T05:41:17.708Z,23.60
2023-03-11T05:43:52.071Z,20.70
2023-03-11T05:46:23.550Z,25.13
2023-03-11T05:48:52.944Z,20.50
2023-03-11T05:51:22.299Z,22.50
2023-03-11T05:53:51.647Z,21.75
2023-03-11T05:56:34.103Z,25.05
2023-03-11T05:59:03.411Z,21.95
2023-03-11T06:01:39.276Z,17.88
2023-03-11T06:04:08.908Z,12.88
2023-03-11T06:06:38.497Z,13.85
2023-03-11T06:09:07.773Z,10.35
2023-03-11T06:11:37.238Z,11.48
2023-03-11T06:14:15.263Z,12.82
2023-03-11T06:16:48.843Z,12.38
2023-03-11T06:21:50.860Z,13.32
2023-03-11T06:24:20.832Z,12.52
2023-03-11T06:26:53.900Z,9.95
2023-03-11T06:29:34.727Z,12.48
2023-03-11T06:32:06.130Z,9.82
2023-03-11T06:34:35.436Z,7.65
2023-03-11T06:37:10.702Z,11.40
2023-03-11T06:39:42.078Z,11.25
2023-03-11T06:42:14.583Z,10.95
2023-03-11T06:44:45.075Z,10.57
2023-03-11T06:47:16.833Z,11.27
2023-03-11T06:52:15.380Z,7.90
2023-03-11T06:54:44.913Z,8.65
2023-03-11T06:57:20.438Z,9.90
2023-03-11T06:59:51.696Z,6.68
2023-03-11T07:02:23.864Z,7.43
2023-03-11T07:04:53.279Z,6.28
2023-03-11T07:07:22.977Z,9.23
2023-03-11T07:09:58.393Z,7.43
2023-03-11T07:12:27.839Z,5.63
2023-03-11T07:15:14.166Z,6.45
2023-03-11T07:17:48.762Z,8.40
2023-03-11T07:20:26.142Z,7.93
2023-03-11T07:22:55.513Z,7.65
2023-03-11T07:25:24.655Z,6.03
2023-03-11T07:28:06.004Z,10.73
2023-03-11T07:30:44.046Z,8.27
2023-03-11T07:33:21.323Z,8.15
2023-03-11T07:35:50.667Z,6.60
2023-03-11T07:38:21.046Z,8.27
2023-03-11T07:40:59.347Z,7.82
2023-03-11T07:43:33.976Z,10.10
2023-03-11T07:46:08.495Z,5.22
2023-03-11T07:48:43.897Z,4.50
2023-03-11T07:51:15.337Z,4.70
2023-03-11T07:53:44.980Z,5.53
2023-03-11T07:58:52.329Z,5.05
2023-03-11T08:01:26.427Z,5.50
2023-03-11T08:04:02.942Z,7.10
2023-03-11T08:06:34.750Z,7.35
2023-03-11T08:09:06.434Z,4.88
2023-03-11T08:11:35.974Z,5.22
2023-03-11T08:14:05.820Z,5.03
2023-03-11T08:16:35.601Z,5.35
2023-03-11T08:19:06.729Z,5.57
2023-03-11T08:21:36.522Z,5.82
2023-03-11T08:24:06.954Z,6.53
2023-03-11T08:26:42.472Z,4.72
2023-03-11T08:29:11.949Z,5.25
2023-03-11T08:31:41.257Z,3.92
2023-03-11T08:34:13.456Z,3.78
2023-03-11T08:36:43.290Z,4.93
2023-03-11T08:39:12.817Z,4.07
2023-03-11T08:41:47.160Z,5.15
2023-03-11T08:44:16.272Z,3.40
2023-03-11T08:46:45.685Z,4.00
2023-03-11T08:49:16.886Z,5.20
2023-03-11T08:51:46.107Z,5.25
2023-03-11T08:54:17.327Z,8.82
2023-03-11T08:56:47.489Z,6.60
2023-03-11T08:59:21.870Z,4.25
2023-03-11T09:01:51.582Z,5.15
2023-03-11T09:06:57.478Z,4.00
2023-03-11T09:09:29.621Z,6.57
2023-03-11T09:12:03.972Z,3.88
2023-03-11T09:14:33.068Z,4.68
2023-03-11T09:17:02.277Z,4.70
2023-03-11T09:19:38.633Z,4.78
2023-03-11T09:22:09.364Z,5.72
2023-03-11T09:24:40.936Z,5.95
2023-03-11T09:27:12.690Z,5.43
2023-03-11T09:29:42.530Z,9.65
2023-03-11T09:32:14.714Z,6.68
2023-03-11T09:37:15.059Z,5.60
2023-03-11T09:39:45.448Z,10.00
2023-03-11T09:42:27.264Z,5.78
2023-03-11T09:45:05.338Z,8.63
2023-03-11T09:47:42.239Z,6.97
2023-03-11T09:52:53.230Z,5.88
2023-03-11T09:55:39.679Z,3.17
2023-03-11T09:58:44.205Z,4.03
2023-03-11T10:01:24.513Z,7.07
2023-03-11T10:04:01.793Z,5.43
2023-03-11T10:06:33.425Z,5.65
2023-03-11T10:09:09.630Z,4.00
2023-03-11T10:11:58.394Z,4.47
2023-03-11T10:14:42.502Z,5.05
2023-03-11T10:17:22.723Z,3.88
2023-03-11T10:19:57.323Z,7.00
2023-03-11T10:22:35.226Z,6.45
2023-03-11T10:25:13.614Z,5.63
2023-03-11T10:27:47.738Z,3.40
2023-03-11T10:30:25.409Z,3.17
2023-03-11T10:32:58.729Z,4.78
2023-03-11T10:38:24.125Z,5.95
2023-03-11T10:43:28.824Z,6.75
2023-03-11T10:45:58.144Z,4.97
2023-03-11T10:48:27.965Z,2.60
2023-03-11T10:51:03.768Z,4.07
2023-03-11T10:53:45.457Z,5.07
2023-03-11T10:56:32.018Z,4.13
2023-03-11T10:59:02.304Z,5.32
2023-03-11T11:01:32.039Z,3.08
2023-03-11T11:04:25.761Z,4.82
2023-03-11T11:06:56.250Z,4.38
2023-03-11T11:09:30.671Z,4.25
2023-03-11T11:12:12.201Z,9.65
2023-03-11T11:14:49.684Z,7.53
2023-03-11T11:17:21.210Z,6.78
2023-03-11T11:19:54.099Z,6.88
2023-03-11T11:22:25.143Z,6.47
2023-03-11T11:24:58.525Z,7.10
2023-03-11T11:27:35.503Z,6.40
2023-03-11T11:30:18.459Z,8.93
2023-03-11T11:32:47.969Z,8.20
2023-03-11T11:35:24.489Z,6.82
2023-03-11T11:37:56.317Z,7.57
2023-03-11T11:40:33.664Z,6.88
2023-03-11T11:43:13.507Z,7.22
2023-03-11T11:45:45.664Z,8.98
2023-03-11T11:48:25.081Z,13.57
2023-03-11T11:50:55.772Z,6.88
2023-03-11T11:53:34.608Z,7.53
2023-03-11T11:56:06.087Z,7.25
2023-03-11T11:58:36.823Z,6.20
2023-03-11T12:01:15.986Z,8.40
2023-03-11T12:04:14.073Z,7.20
2023-03-11T12:06:49.630Z,6.25
2023-03-11T12:09:28.093Z,6.03
2023-03-11T12:12:05.918Z,8.02
2023-03-11T12:14:50.013Z,7.57
2023-03-11T12:17:23.143Z,8.80
2023-03-11T12:20:13.260Z,5.97
2023-03-11T12:23:15.921Z,6.82
2023-03-11T12:26:06.747Z,7.15
2023-03-11T12:28:45.246Z,4.72
2023-03-11T12:31:20.835Z,7.15
2023-03-11T12:33:52.747Z,7.53
2023-03-11T12:38:59.136Z,8.57
2023-03-11T12:41:39.749Z,6.75
2023-03-11T12:44:26.884Z,5.82
2023-03-11T12:52:57.639Z,8.07
2023-03-11T12:55:36.144Z,7.45
2023-03-11T12:58:46.343Z,5.65
2023-03-11T13:01:27.240Z,7.60
2023-03-11T13:04:17.209Z,4.82
2023-03-11T13:07:15.470Z,4.25
2023-03-11T13:12:43.627Z,4.97
2023-03-11T13:15:36.237Z,3.97
2023-03-11T13:18:17.053Z,8.45
2023-03-11T13:21:00.452Z,8.95
2023-03-11T13:23:40.047Z,7.03
2023-03-11T13:26:39.647Z,6.03
2023-03-11T13:29:31.272Z,5.18
2023-03-11T13:32:18.567Z,5.97
2023-03-11T13:35:02.563Z,8.18
2023-03-11T13:37:42.205Z,5.05
2023-03-11T13:40:21.899Z,5.65
2023-03-11T13:42:56.132Z,6.18
2023-03-11T13:45:30.857Z,6.60
2023-03-11T13:48:09.810Z,5.70
2023-03-11T13:50:43.882Z,4.18
2023-03-11T13:53:26.313Z,5.68
2023-03-11T13:55:55.528Z,4.70
2023-03-11T14:01:08.727Z,8.15
2023-03-11T14:03:45.410Z,6.43
2023-03-11T14:06:21.142Z,6.20
2023-03-11T14:08:55.972Z,6.25
2023-03-11T14:11:28.921Z,4.82
2023-03-11T14:14:29.849Z,7.30
2023-03-11T14:17:01.126Z,4.45
2023-03-11T14:19:30.410Z,5.85
2023-03-11T14:21:59.722Z,5.22
2023-03-11T14:24:31.661Z,7.05
2023-03-11T14:29:37.566Z,4.97
2023-03-11T14:32:29.537Z,5.10
2023-03-11T14:35:04.356Z,5.30
2023-03-11T14:37:36.008Z,5.57
2023-03-11T14:40:07.203Z,6.25
2023-03-11T14:42:38.566Z,6.07
2023-03-11T14:45:21.651Z,6.00
2023-03-11T14:47:53.919Z,5.47
2023-03-11T14:50:26.072Z,3.95
2023-03-11T14:53:03.057Z,7.05
2023-03-11T14:55:39.893Z,4.88
2023-03-11T14:58:15.877Z,4.40
2023-03-11T15:00:52.072Z,5.85
2023-03-11T15:08:38.860Z,2.25
2023-03-11T15:11:24.943Z,5.15
2023-03-11T15:13:55.095Z,6.53
2023-03-11T15:16:36.214Z,4.28
2023-03-11T15:19:24.208Z,5.18
2023-03-11T15:22:03.345Z,5.15
2023-03-11T15:24:35.126Z,5.75
2023-03-11T15:27:23.825Z,7.65
2023-03-11T15:29:54.136Z,4.28
2023-03-11T15:32:40.041Z,5.53
2023-03-11T15:35:18.944Z,5.60
2023-03-11T15:37:49.535Z,11.30
2023-03-11T15:40:35.316Z,7.95
2023-03-11T15:43:23.689Z,6.47
2023-03-11T15:45:55.237Z,6.13
2023-03-11T15:48:28.563Z,6.03
2023-03-11T15:51:01.753Z,5.85
2023-03-11T15:53:32.312Z,6.00
2023-03-11T15:56:08.151Z,6.88
2023-03-11T15:58:39.504Z,6.38
2023-03-11T16:01:09.218Z,8.13
2023-03-11T16:03:40.781Z,5.32
2023-03-11T16:06:13.016Z,5.63
2023-03-11T16:08:44.218Z,6.15
2023-03-11T16:11:14.503Z,6.05
2023-03-11T16:13:43.805Z,9.07
2023-03-11T16:16:20.334Z,4.85
2023-03-11T16:18:51.889Z,5.50
2023-03-11T16:21:32.923Z,6.63
2023-03-11T16:24:02.791Z,5.68
2023-03-11T16:29:19.417Z,6.65
2023-03-11T16:31:49.379Z,6.03
2023-03-11T16:34:25.900Z,6.43
2023-03-11T16:36:55.171Z,6.57
2023-03-11T16:39:24.490Z,5.25
2023-03-11T16:41:53.873Z,6.32
2023-03-11T16:44:23.160Z,5.63
2023-03-11T16:46:52.420Z,7.93
2023-03-11T16:49:21.716Z,8.65
2023-03-11T16:51:53.147Z,6.63
2023-03-11T16:54:22.578Z,9.40
2023-03-11T16:56:51.782Z,9.13
2023-03-11T16:59:26.043Z,6.28
2023-03-11T17:01:55.840Z,7.63
2023-03-11T17:04:25.117Z,7.68
2023-03-11T17:07:06.435Z,12.65
2023-03-11T17:09:36.652Z,8.55
2023-03-11T17:12:15.349Z,10.25
2023-03-11T17:14:49.584Z,7.95
2023-03-11T17:17:18.912Z,8.13
2023-03-11T17:19:48.481Z,4.22
2023-03-11T17:22:19.822Z,10.00
2023-03-11T17:24:50.657Z,7.03
2023-03-11T17:27:19.938Z,9.52
2023-03-11T17:29:49.241Z,7.45
2023-03-11T17:32:19.581Z,9.90
2023-03-11T17:34:54.279Z,9.25
2023-03-11T17:37:26.156Z,8.30
2023-03-11T17:42:24.641Z,10.93
2023-03-11T17:45:02.520Z,8.48
2023-03-11T17:47:34.203Z,8.75
2023-03-11T17:50:03.550Z,10.07
2023-03-11T17:52:35.047Z,10.50
2023-03-11T17:55:07.520Z,12.20
2023-03-11T17:57:45.115Z,12.20
2023-03-11T18:00:16.359Z,8.38
2023-03-11T18:02:45.766Z,10.48
2023-03-11T18:05:16.918Z,10.98
2023-03-11T18:07:50.059Z,11.27
2023-03-11T18:10:21.075Z,11.20
2023-03-11T18:12:55.448Z,9.95
2023-03-11T18:15:24.658Z,11.30
2023-03-11T18:17:56.621Z,12.90
2023-03-11T18:20:26.942Z,12.15
2023-03-11T18:22:58.196Z,12.23
2023-03-11T18:25:27.576Z,11.70
2023-03-11T18:27:56.755Z,10.93
2023-03-11T18:33:01.366Z,11.57
2023-03-11T18:35:33.537Z,13.95
2023-03-11T18:38:04.907Z,11.63
2023-03-11T18:40:34.069Z,10.23
2023-03-11T18:43:03.271Z,12.35
2023-03-11T18:45:32.586Z,10.50
2023-03-11T18:48:01.719Z,12.93
2023-03-11T18:50:36.018Z,9.65
2023-03-11T18:53:09.222Z,14.93
2023-03-11T18:55:38.531Z,13.98
2023-03-11T18:58:08.996Z,15.57
2023-03-11T19:00:43.741Z,11.38
2023-03-11T19:03:13.220Z,11.23
2023-03-11T19:05:49.557Z,13.93
2023-03-11T19:08:21.770Z,14.13
2023-03-11T19:11:01.391Z,12.25
2023-03-11T19:13:45.629Z,15.38
2023-03-11T19:16:16.981Z,16.67
2023-03-11T19:18:46.856Z,14.75
2023-03-11T19:21:17.208Z,16.90
2023-03-11T19:23:49.568Z,16.38
2023-03-11T19:28:54.330Z,18.33
2023-03-11T19:31:23.521Z,15.65
2023-03-11T19:33:59.385Z,12.90
2023-03-11T19:36:29.783Z,13.45
2023-03-11T19:39:00.931Z,16.55
2023-03-11T19:41:30.157Z,17.77
2023-03-11T19:43:59.494Z,17.35
2023-03-11T19:46:29.408Z,10.90
2023-03-11T19:48:59.192Z,16.98
2023-03-11T19:51:32.960Z,16.42
2023-03-11T19:54:16.792Z,14.57
2023-03-11T19:56:46.070Z,19.90
2023-03-11T19:59:15.340Z,18.35
2023-03-11T20:01:44.496Z,21.05
2023-03-11T20:04:14.609Z,19.35
2023-03-11T20:06:48.943Z,16.17
2023-03-11T20:09:20.502Z,17.70
2023-03-11T20:11:54.953Z,15.40
2023-03-11T20:14:29.228Z,24.15
2023-03-11T20:16:58.565Z,19.30
2023-03-11T20:19:28.132Z,23.05
2023-03-11T20:21:57.393Z,18.73
2023-03-11T20:24:28.744Z,16.05
2023-03-11T20:26:58.058Z,20.45
2023-03-11T20:29:27.289Z,21.38
2023-03-11T20:31:56.691Z,17.80
2023-03-11T20:34:26.505Z,20.05
2023-03-11T20:36:55.878Z,20.85
2023-03-11T20:39:30.378Z,20.45
2023-03-11T20:42:01.661Z,10.68
2023-03-11T20:44:31.075Z,21.02
2023-03-11T20:47:00.228Z,24.15
2023-03-11T20:49:29.543Z,20.35
2023-03-11T20:51:58.800Z,16.35
2023-03-11T20:54:27.913Z,21.02
2023-03-11T20:56:57.226Z,23.95
2023-03-11T20:59:28.476Z,21.20
2023-03-11T21:01:57.780Z,18.30
2023-03-11T21:04:27.448Z,26.80
2023-03-11T21:06:57.247Z,22.30
2023-03-11T21:09:26.614Z,16.42
2023-03-11T21:11:56.092Z,17.65
2023-03-11T21:14:26.232Z,22.92
2023-03-11T21:16:57.550Z,26.55
2023-03-11T21:21:56.081Z,29.55
2023-03-11T21:24:25.409Z,18.63
2023-03-11T21:26:54.844Z,24.92
2023-03-11T21:29:24.175Z,30.10
2023-03-11T21:31:53.446Z,27.13
2023-03-11T21:34:25.537Z,28.80
2023-03-11T21:39:24.551Z,24.67
2023-03-11T21:41:56.488Z,31.60
2023-03-11T21:46:54.562Z,22.40
2023-03-11T21:49:31.056Z,28.70
2023-03-11T21:52:02.178Z,23.63
2023-03-11T21:57:11.225Z,27.52
2023-03-11T21:59:40.477Z,22.30
2023-03-11T22:02:16.225Z,24.50
2023-03-11T22:04:52.723Z,20.90
2023-03-11T22:07:27.085Z,20.63
2023-03-11T22:09:56.671Z,19.73
2023-03-11T22:12:26.189Z,17.27
2023-03-11T22:14:55.530Z,18.58
2023-03-11T22:17:25.091Z,15.57
2023-03-11T22:19:56.394Z,21.10
2023-03-11T22:22:25.574Z,12.75
2023-03-11T22:24:54.747Z,11.70
2023-03-11T22:27:29.518Z,15.82
2023-03-11T22:29:58.752Z,14.90
2023-03-11T22:32:28.153Z,16.73
2023-03-11T22:34:59.305Z,15.52
2023-03-11T22:37:28.814Z,16.92
2023-03-11T22:39:58.488Z,15.65
2023-03-11T22:42:32.980Z,16.13
2023-03-11T22:45:02.589Z,18.70
2023-03-11T22:47:32.198Z,14.73
2023-03-11T22:52:43.402Z,15.30
2023-03-11T22:55:13.328Z,12.48
2023-03-11T22:57:42.573Z,13.18
2023-03-11T23:00:16.730Z,13.38
2023-03-11T23:02:51.570Z,10.77
2023-03-11T23:05:23.191Z,11.13
2023-03-11T23:07:53.044Z,10.85
2023-03-11T23:10:22.716Z,12.30
2023-03-11T23:12:57.010Z,12.52
2023-03-11T23:15:25.987Z,9.98
2023-03-11T23:17:55.098Z,10.50
2023-03-11T23:20:26.150Z,10.63
2023-03-11T23:22:55.408Z,8.50
2023-03-11T23:25:24.675Z,8.50
2023-03-11T23:27:53.945Z,10.88
2023-03-11T23:30:23.737Z,9.65
2023-03-11T23:32:52.980Z,11.20
2023-03-11T23:35:22.182Z,7.25
2023-03-11T23:37:53.450Z,11.32
2023-03-11T23:40:22.896Z,9.18
2023-03-11T23:42:52.342Z,9.30
2023-03-11T23:45:21.553Z,10.90
2023-03-11T23:47:51.108Z,12.43
2023-03-11T23:50:20.463Z,10.48
2023-03-11T23:52:49.727Z,10.38
2023-03-11T23:55:21.112Z,9.65
2023-03-11T23:57:50.383Z,10.15
